Newport, Illinois
Current Conditions -  °F | °C
As of 7:53 AM on Wednesday 28 Jan 2015 (Local Time) from KCPS Reporting Station
Haze Haze  
Wind Chill: 21°   Ceiling: Unl
Heat Index: 30°   Visibility: 5mi
Dew Point: 27°   Wind: 10mph
Humidity: 88%   Direction: 150°SSE
Pressure: 30.25"   Gusts: NA
Location:  38.6797°N, 90.1504°W
Report Text: KCPS 281353Z 15009KT 5SM BR CLR M01/M03 A3025 RMK AO2 SLP249 T10111028
Loading
Personal Weather Stations






























Interactive Weather Map New forecast layout! Learn more

10-Day Weather Forecast

Advertisements
Track Severe Weather on mobile